sensor_id;sensor_type;location;lat;lon;timestamp;temperature;humidity
52787;DHT22;38661;53.152;5.846;2022-10-30T00:02:03;14.20;94.50
52787;DHT22;38661;53.152;5.846;2022-10-30T00:04:28;14.20;94.70
52787;DHT22;38661;53.152;5.846;2022-10-30T00:06:54;14.20;94.60
52787;DHT22;38661;53.152;5.846;2022-10-30T00:09:20;14.20;94.50
52787;DHT22;38661;53.152;5.846;2022-10-30T00:11:45;14.20;94.60
52787;DHT22;38661;53.152;5.846;2022-10-30T00:14:11;14.20;94.70
52787;DHT22;38661;53.152;5.846;2022-10-30T00:16:38;14.20;94.70
52787;DHT22;38661;53.152;5.846;2022-10-30T00:19:04;14.20;94.70
52787;DHT22;38661;53.152;5.846;2022-10-30T00:21:29;14.20;94.60
52787;DHT22;38661;53.152;5.846;2022-10-30T00:23:55;14.20;94.50
52787;DHT22;38661;53.152;5.846;2022-10-30T00:26:22;14.10;94.40
52787;DHT22;38661;53.152;5.846;2022-10-30T00:28:52;14.10;94.40
52787;DHT22;38661;53.152;5.846;2022-10-30T00:31:18;14.00;94.40
52787;DHT22;38661;53.152;5.846;2022-10-30T00:33:51;14.00;94.40
52787;DHT22;38661;53.152;5.846;2022-10-30T00:36:18;14.00;94.40
52787;DHT22;38661;53.152;5.846;2022-10-30T00:38:43;14.00;94.40
52787;DHT22;38661;53.152;5.846;2022-10-30T00:41:17;14.00;94.40
52787;DHT22;38661;53.152;5.846;2022-10-30T00:43:43;14.00;94.30
52787;DHT22;38661;53.152;5.846;2022-10-30T00:46:32;13.90;94.30
52787;DHT22;38661;53.152;5.846;2022-10-30T00:51:36;13.90;94.30
52787;DHT22;38661;53.152;5.846;2022-10-30T00:54:04;13.80;94.20
52787;DHT22;38661;53.152;5.846;2022-10-30T00:56:31;13.80;94.30
52787;DHT22;38661;53.152;5.846;2022-10-30T00:59:00;13.70;94.30
52787;DHT22;38661;53.152;5.846;2022-10-30T01:01:28;13.70;94.30
52787;DHT22;38661;53.152;5.846;2022-10-30T01:03:58;13.80;94.30
52787;DHT22;38661;53.152;5.846;2022-10-30T01:06:25;13.70;94.30
52787;DHT22;38661;53.152;5.846;2022-10-30T01:08:53;13.80;94.40
52787;DHT22;38661;53.152;5.846;2022-10-30T01:11:19;13.80;94.60
52787;DHT22;38661;53.152;5.846;2022-10-30T01:13:47;13.80;94.80
52787;DHT22;38661;53.152;5.846;2022-10-30T01:21:57;13.70;94.70
52787;DHT22;38661;53.152;5.846;2022-10-30T01:24:30;13.70;94.70
52787;DHT22;38661;53.152;5.846;2022-10-30T01:27:20;13.70;94.70
52787;DHT22;38661;53.152;5.846;2022-10-30T01:38:18;13.70;95.10
52787;DHT22;38661;53.152;5.846;2022-10-30T01:40:46;13.60;95.00
52787;DHT22;38661;53.152;5.846;2022-10-30T01:43:12;13.60;95.00
52787;DHT22;38661;53.152;5.846;2022-10-30T01:46:16;13.60;95.00
52787;DHT22;38661;53.152;5.846;2022-10-30T01:51:50;13.50;95.20
52787;DHT22;38661;53.152;5.846;2022-10-30T02:00:02;13.50;95.50
52787;DHT22;38661;53.152;5.846;2022-10-30T02:02:29;13.50;95.40
52787;DHT22;38661;53.152;5.846;2022-10-30T02:04:55;13.50;95.60
52787;DHT22;38661;53.152;5.846;2022-10-30T02:07:21;13.50;95.40
52787;DHT22;38661;53.152;5.846;2022-10-30T02:09:49;13.50;95.30
52787;DHT22;38661;53.152;5.846;2022-10-30T02:12:15;13.50;95.50
52787;DHT22;38661;53.152;5.846;2022-10-30T02:14:45;13.60;95.60
52787;DHT22;38661;53.152;5.846;2022-10-30T02:17:12;13.60;95.50
52787;DHT22;38661;53.152;5.846;2022-10-30T02:19:38;13.60;95.50
52787;DHT22;38661;53.152;5.846;2022-10-30T02:22:04;13.60;95.50
52787;DHT22;38661;53.152;5.846;2022-10-30T02:24:31;13.60;95.60
52787;DHT22;38661;53.152;5.846;2022-10-30T02:26:56;13.60;95.50
52787;DHT22;38661;53.152;5.846;2022-10-30T02:29:22;13.60;95.60
52787;DHT22;38661;53.152;5.846;2022-10-30T02:31:48;13.60;95.60
52787;DHT22;38661;53.152;5.846;2022-10-30T02:34:14;13.60;95.70
52787;DHT22;38661;53.152;5.846;2022-10-30T02:36:40;13.60;95.70
52787;DHT22;38661;53.152;5.846;2022-10-30T02:39:06;13.60;95.70
52787;DHT22;38661;53.152;5.846;2022-10-30T02:41:32;13.60;95.60
52787;DHT22;38661;53.152;5.846;2022-10-30T02:43:58;13.60;95.50
52787;DHT22;38661;53.152;5.846;2022-10-30T02:46:23;13.60;95.60
52787;DHT22;38661;53.152;5.846;2022-10-30T02:48:49;13.60;95.60
52787;DHT22;38661;53.152;5.846;2022-10-30T02:51:15;13.50;95.70
52787;DHT22;38661;53.152;5.846;2022-10-30T02:53:41;13.50;95.70
52787;DHT22;38661;53.152;5.846;2022-10-30T02:56:08;13.50;96.00
52787;DHT22;38661;53.152;5.846;2022-10-30T02:58:35;13.50;95.90
52787;DHT22;38661;53.152;5.846;2022-10-30T03:01:13;13.50;95.80
52787;DHT22;38661;53.152;5.846;2022-10-30T03:03:39;13.50;95.80
52787;DHT22;38661;53.152;5.846;2022-10-30T03:06:06;13.50;95.80
52787;DHT22;38661;53.152;5.846;2022-10-30T03:08:33;13.50;95.80
52787;DHT22;38661;53.152;5.846;2022-10-30T03:11:07;13.40;95.70
52787;DHT22;38661;53.152;5.846;2022-10-30T03:13:34;13.40;95.80
52787;DHT22;38661;53.152;5.846;2022-10-30T03:16:05;13.40;95.80
52787;DHT22;38661;53.152;5.846;2022-10-30T03:18:31;13.40;95.80
52787;DHT22;38661;53.152;5.846;2022-10-30T03:20:59;13.40;95.70
52787;DHT22;38661;53.152;5.846;2022-10-30T03:23:26;13.40;95.90
52787;DHT22;38661;53.152;5.846;2022-10-30T03:25:56;13.30;95.90
52787;DHT22;38661;53.152;5.846;2022-10-30T03:28:24;13.30;96.00
52787;DHT22;38661;53.152;5.846;2022-10-30T03:30:50;13.30;96.00
52787;DHT22;38661;53.152;5.846;2022-10-30T03:33:16;13.30;96.00
52787;DHT22;38661;53.152;5.846;2022-10-30T03:35:43;13.30;96.00
52787;DHT22;38661;53.152;5.846;2022-10-30T03:38:11;13.30;95.80
52787;DHT22;38661;53.152;5.846;2022-10-30T03:40:37;13.30;96.00
52787;DHT22;38661;53.152;5.846;2022-10-30T03:43:02;13.20;96.10
52787;DHT22;38661;53.152;5.846;2022-10-30T03:45:28;13.20;96.20
52787;DHT22;38661;53.152;5.846;2022-10-30T03:47:54;13.20;96.20
52787;DHT22;38661;53.152;5.846;2022-10-30T03:50:19;13.30;95.90
52787;DHT22;38661;53.152;5.846;2022-10-30T03:52:45;13.30;96.10
52787;DHT22;38661;53.152;5.846;2022-10-30T03:55:11;13.30;96.10
52787;DHT22;38661;53.152;5.846;2022-10-30T03:57:37;13.30;96.20
52787;DHT22;38661;53.152;5.846;2022-10-30T04:00:04;13.30;96.30
52787;DHT22;38661;53.152;5.846;2022-10-30T04:02:30;13.30;96.30
52787;DHT22;38661;53.152;5.846;2022-10-30T04:04:55;13.30;96.40
52787;DHT22;38661;53.152;5.846;2022-10-30T04:07:21;13.20;96.20
52787;DHT22;38661;53.152;5.846;2022-10-30T04:09:47;13.20;96.30
52787;DHT22;38661;53.152;5.846;2022-10-30T04:12:12;13.30;96.40
52787;DHT22;38661;53.152;5.846;2022-10-30T04:14:38;13.30;96.20
52787;DHT22;38661;53.152;5.846;2022-10-30T04:17:04;13.30;96.40
52787;DHT22;38661;53.152;5.846;2022-10-30T04:19:30;13.30;96.60
52787;DHT22;38661;53.152;5.846;2022-10-30T04:21:56;13.30;96.40
52787;DHT22;38661;53.152;5.846;2022-10-30T04:24:22;13.30;96.50
52787;DHT22;38661;53.152;5.846;2022-10-30T04:26:48;13.20;96.70
52787;DHT22;38661;53.152;5.846;2022-10-30T04:29:14;13.20;96.70
52787;DHT22;38661;53.152;5.846;2022-10-30T04:31:39;13.20;96.80
52787;DHT22;38661;53.152;5.846;2022-10-30T04:34:05;13.20;96.80
52787;DHT22;38661;53.152;5.846;2022-10-30T04:36:31;13.10;96.70
52787;DHT22;38661;53.152;5.846;2022-10-30T04:38:59;13.10;96.90
52787;DHT22;38661;53.152;5.846;2022-10-30T04:41:25;13.10;96.90
52787;DHT22;38661;53.152;5.846;2022-10-30T04:43:51;13.10;96.80
52787;DHT22;38661;53.152;5.846;2022-10-30T04:46:17;13.10;96.90
52787;DHT22;38661;53.152;5.846;2022-10-30T04:48:43;13.10;96.90
52787;DHT22;38661;53.152;5.846;2022-10-30T04:51:09;13.10;96.90
52787;DHT22;38661;53.152;5.846;2022-10-30T04:53:37;13.00;96.90
52787;DHT22;38661;53.152;5.846;2022-10-30T04:56:04;13.00;97.00
52787;DHT22;38661;53.152;5.846;2022-10-30T04:58:30;13.00;97.00
52787;DHT22;38661;53.152;5.846;2022-10-30T05:01:03;13.00;97.00
52787;DHT22;38661;53.152;5.846;2022-10-30T05:03:29;13.00;96.90
52787;DHT22;38661;53.152;5.846;2022-10-30T05:06:04;13.00;97.00
52787;DHT22;38661;53.152;5.846;2022-10-30T05:08:32;13.00;96.80
52787;DHT22;38661;53.152;5.846;2022-10-30T05:10:58;13.00;96.90
52787;DHT22;38661;53.152;5.846;2022-10-30T05:13:24;12.90;96.90
52787;DHT22;38661;53.152;5.846;2022-10-30T05:15:50;12.90;96.90
52787;DHT22;38661;53.152;5.846;2022-10-30T05:18:18;12.90;97.00
52787;DHT22;38661;53.152;5.846;2022-10-30T05:20:45;12.90;97.00
52787;DHT22;38661;53.152;5.846;2022-10-30T05:23:11;12.80;97.00
52787;DHT22;38661;53.152;5.846;2022-10-30T05:25:37;12.80;97.00
52787;DHT22;38661;53.152;5.846;2022-10-30T05:28:05;12.80;97.00
52787;DHT22;38661;53.152;5.846;2022-10-30T05:30:32;12.80;97.00
52787;DHT22;38661;53.152;5.846;2022-10-30T05:33:04;12.70;97.00
52787;DHT22;38661;53.152;5.846;2022-10-30T05:35:31;12.70;96.90
52787;DHT22;38661;53.152;5.846;2022-10-30T05:37:58;12.80;97.10
52787;DHT22;38661;53.152;5.846;2022-10-30T05:40:24;12.80;97.10
52787;DHT22;38661;53.152;5.846;2022-10-30T05:42:50;12.80;97.00
52787;DHT22;38661;53.152;5.846;2022-10-30T05:45:16;12.70;97.20
52787;DHT22;38661;53.152;5.846;2022-10-30T05:47:43;12.70;97.10
52787;DHT22;38661;53.152;5.846;2022-10-30T05:50:09;12.70;97.10
52787;DHT22;38661;53.152;5.846;2022-10-30T05:52:36;12.70;97.10
52787;DHT22;38661;53.152;5.846;2022-10-30T05:55:02;12.70;97.10
52787;DHT22;38661;53.152;5.846;2022-10-30T05:57:28;12.70;97.10
52787;DHT22;38661;53.152;5.846;2022-10-30T05:59:55;12.70;97.20
52787;DHT22;38661;53.152;5.846;2022-10-30T06:02:21;12.60;97.30
52787;DHT22;38661;53.152;5.846;2022-10-30T06:04:47;12.70;97.30
52787;DHT22;38661;53.152;5.846;2022-10-30T06:07:12;12.70;97.20
52787;DHT22;38661;53.152;5.846;2022-10-30T06:09:38;12.60;97.20
52787;DHT22;38661;53.152;5.846;2022-10-30T06:12:04;12.70;97.30
52787;DHT22;38661;53.152;5.846;2022-10-30T06:14:29;12.60;97.30
52787;DHT22;38661;53.152;5.846;2022-10-30T06:16:55;12.60;97.30
52787;DHT22;38661;53.152;5.846;2022-10-30T06:19:21;12.60;97.40
52787;DHT22;38661;53.152;5.846;2022-10-30T06:21:46;12.60;97.40
52787;DHT22;38661;53.152;5.846;2022-10-30T06:24:13;12.60;97.30
52787;DHT22;38661;53.152;5.846;2022-10-30T06:26:39;12.60;97.20
52787;DHT22;38661;53.152;5.846;2022-10-30T06:29:04;12.50;97.20
52787;DHT22;38661;53.152;5.846;2022-10-30T06:31:30;12.50;97.20
52787;DHT22;38661;53.152;5.846;2022-10-30T06:33:56;12.50;97.20
52787;DHT22;38661;53.152;5.846;2022-10-30T06:36:22;12.40;97.10
52787;DHT22;38661;53.152;5.846;2022-10-30T06:38:47;12.40;97.10
52787;DHT22;38661;53.152;5.846;2022-10-30T06:41:13;12.40;97.10
52787;DHT22;38661;53.152;5.846;2022-10-30T06:43:39;12.30;97.10
52787;DHT22;38661;53.152;5.846;2022-10-30T06:46:05;12.30;97.10
52787;DHT22;38661;53.152;5.846;2022-10-30T06:48:30;12.30;97.00
52787;DHT22;38661;53.152;5.846;2022-10-30T06:50:58;12.30;97.00
52787;DHT22;38661;53.152;5.846;2022-10-30T06:53:24;12.30;97.00
52787;DHT22;38661;53.152;5.846;2022-10-30T06:55:58;12.30;97.10
52787;DHT22;38661;53.152;5.846;2022-10-30T06:58:25;12.30;97.10
52787;DHT22;38661;53.152;5.846;2022-10-30T07:00:51;12.30;97.20
52787;DHT22;38661;53.152;5.846;2022-10-30T07:03:17;12.30;97.10
52787;DHT22;38661;53.152;5.846;2022-10-30T07:05:42;12.30;97.20
52787;DHT22;38661;53.152;5.846;2022-10-30T07:08:08;12.30;97.20
52787;DHT22;38661;53.152;5.846;2022-10-30T07:10:34;12.40;97.40
52787;DHT22;38661;53.152;5.846;2022-10-30T07:13:00;12.40;97.30
52787;DHT22;38661;53.152;5.846;2022-10-30T07:15:26;12.40;97.40
52787;DHT22;38661;53.152;5.846;2022-10-30T07:18:02;12.40;97.40
52787;DHT22;38661;53.152;5.846;2022-10-30T07:20:29;12.40;97.30
52787;DHT22;38661;53.152;5.846;2022-10-30T07:22:55;12.40;97.30
52787;DHT22;38661;53.152;5.846;2022-10-30T07:25:21;12.40;97.40
52787;DHT22;38661;53.152;5.846;2022-10-30T07:27:51;12.40;97.50
52787;DHT22;38661;53.152;5.846;2022-10-30T07:30:20;12.50;97.40
52787;DHT22;38661;53.152;5.846;2022-10-30T07:32:47;12.50;97.40
52787;DHT22;38661;53.152;5.846;2022-10-30T07:35:20;12.50;97.30
52787;DHT22;38661;53.152;5.846;2022-10-30T07:37:46;12.50;97.60
52787;DHT22;38661;53.152;5.846;2022-10-30T07:40:11;12.60;97.60
52787;DHT22;38661;53.152;5.846;2022-10-30T07:42:37;12.60;97.60
52787;DHT22;38661;53.152;5.846;2022-10-30T07:45:03;12.70;97.60
52787;DHT22;38661;53.152;5.846;2022-10-30T07:47:28;12.80;97.70
52787;DHT22;38661;53.152;5.846;2022-10-30T07:49:54;12.80;97.60
52787;DHT22;38661;53.152;5.846;2022-10-30T07:52:20;12.90;97.70
52787;DHT22;38661;53.152;5.846;2022-10-30T07:54:46;12.90;97.60
52787;DHT22;38661;53.152;5.846;2022-10-30T07:57:11;13.00;97.60
52787;DHT22;38661;53.152;5.846;2022-10-30T07:59:37;13.00;97.40
52787;DHT22;38661;53.152;5.846;2022-10-30T08:02:02;13.00;97.40
52787;DHT22;38661;53.152;5.846;2022-10-30T08:04:28;13.00;97.30
52787;DHT22;38661;53.152;5.846;2022-10-30T08:06:54;13.10;97.30
52787;DHT22;38661;53.152;5.846;2022-10-30T08:09:19;13.20;97.20
52787;DHT22;38661;53.152;5.846;2022-10-30T08:11:45;13.20;97.20
52787;DHT22;38661;53.152;5.846;2022-10-30T08:14:11;13.30;97.10
52787;DHT22;38661;53.152;5.846;2022-10-30T08:16:36;13.30;97.20
52787;DHT22;38661;53.152;5.846;2022-10-30T08:31:52;13.40;97.00
52787;DHT22;38661;53.152;5.846;2022-10-30T08:34:18;13.80;97.00
52787;DHT22;38661;53.152;5.846;2022-10-30T08:36:43;13.80;97.00
52787;DHT22;38661;53.152;5.846;2022-10-30T08:39:09;13.90;97.00
52787;DHT22;38661;53.152;5.846;2022-10-30T08:41:35;14.00;97.10
52787;DHT22;38661;53.152;5.846;2022-10-30T08:44:01;14.00;97.00
52787;DHT22;38661;53.152;5.846;2022-10-30T08:46:26;14.10;96.90
52787;DHT22;38661;53.152;5.846;2022-10-30T08:48:52;14.20;96.90
52787;DHT22;38661;53.152;5.846;2022-10-30T08:51:20;14.30;96.80
52787;DHT22;38661;53.152;5.846;2022-10-30T08:53:48;14.40;96.80
52787;DHT22;38661;53.152;5.846;2022-10-30T08:56:15;14.50;96.70
52787;DHT22;38661;53.152;5.846;2022-10-30T08:58:40;14.50;96.60
52787;DHT22;38661;53.152;5.846;2022-10-30T09:01:06;14.60;96.60
52787;DHT22;38661;53.152;5.846;2022-10-30T09:03:32;14.70;96.50
52787;DHT22;38661;53.152;5.846;2022-10-30T09:05:58;14.80;96.30
52787;DHT22;38661;53.152;5.846;2022-10-30T09:08:24;14.90;96.40
52787;DHT22;38661;53.152;5.846;2022-10-30T09:10:57;15.00;96.20
52787;DHT22;38661;53.152;5.846;2022-10-30T09:13:24;15.00;96.20
52787;DHT22;38661;53.152;5.846;2022-10-30T09:15:50;15.10;96.10
52787;DHT22;38661;53.152;5.846;2022-10-30T09:18:18;15.30;96.00
52787;DHT22;38661;53.152;5.846;2022-10-30T09:20:44;15.40;95.80
52787;DHT22;38661;53.152;5.846;2022-10-30T09:23:12;15.40;95.60
52787;DHT22;38661;53.152;5.846;2022-10-30T09:25:38;15.50;95.50
52787;DHT22;38661;53.152;5.846;2022-10-30T09:28:03;15.50;95.60
52787;DHT22;38661;53.152;5.846;2022-10-30T09:30:29;15.70;95.10
52787;DHT22;38661;53.152;5.846;2022-10-30T09:33:00;15.80;95.20
52787;DHT22;38661;53.152;5.846;2022-10-30T09:35:29;15.90;95.00
52787;DHT22;38661;53.152;5.846;2022-10-30T09:37:55;16.00;95.10
52787;DHT22;38661;53.152;5.846;2022-10-30T09:57:39;16.60;93.70
52787;DHT22;38661;53.152;5.846;2022-10-30T10:00:21;16.80;93.70
52787;DHT22;38661;53.152;5.846;2022-10-30T10:05:21;16.90;93.20
52787;DHT22;38661;53.152;5.846;2022-10-30T10:07:53;17.00;93.00
52787;DHT22;38661;53.152;5.846;2022-10-30T10:12:53;17.20;91.90
52787;DHT22;38661;53.152;5.846;2022-10-30T10:18:11;17.40;92.40
52787;DHT22;38661;53.152;5.846;2022-10-30T10:20:41;17.50;91.80
52787;DHT22;38661;53.152;5.846;2022-10-30T10:23:25;17.50;91.60
52787;DHT22;38661;53.152;5.846;2022-10-30T10:25:54;17.60;91.70
52787;DHT22;38661;53.152;5.846;2022-10-30T10:31:48;17.80;91.30
52787;DHT22;38661;53.152;5.846;2022-10-30T10:37:03;18.00;90.90
52787;DHT22;38661;53.152;5.846;2022-10-30T10:42:51;18.20;90.40
52787;DHT22;38661;53.152;5.846;2022-10-30T10:45:26;18.30;89.50
52787;DHT22;38661;53.152;5.846;2022-10-30T10:48:17;18.40;90.10
52787;DHT22;38661;53.152;5.846;2022-10-30T10:51:17;18.40;89.80
52787;DHT22;38661;53.152;5.846;2022-10-30T10:53:57;18.40;89.60
52787;DHT22;38661;53.152;5.846;2022-10-30T10:56:33;18.50;89.40
52787;DHT22;38661;53.152;5.846;2022-10-30T10:59:03;18.50;89.30
52787;DHT22;38661;53.152;5.846;2022-10-30T11:01:57;18.50;88.70
52787;DHT22;38661;53.152;5.846;2022-10-30T11:04:40;18.60;89.40
52787;DHT22;38661;53.152;5.846;2022-10-30T11:09:51;18.50;87.20
52787;DHT22;38661;53.152;5.846;2022-10-30T11:12:22;18.70;88.10
52787;DHT22;38661;53.152;5.846;2022-10-30T11:14:49;18.70;88.70
52787;DHT22;38661;53.152;5.846;2022-10-30T11:17:23;18.90;87.90
52787;DHT22;38661;53.152;5.846;2022-10-30T11:19:54;18.90;88.30
52787;DHT22;38661;53.152;5.846;2022-10-30T11:22:32;18.90;88.50
52787;DHT22;38661;53.152;5.846;2022-10-30T11:27:48;19.00;88.10
52787;DHT22;38661;53.152;5.846;2022-10-30T11:30:25;19.10;87.00
52787;DHT22;38661;53.152;5.846;2022-10-30T11:32:53;19.10;87.70
52787;DHT22;38661;53.152;5.846;2022-10-30T11:35:20;19.20;87.60
52787;DHT22;38661;53.152;5.846;2022-10-30T11:37:51;19.40;87.60
52787;DHT22;38661;53.152;5.846;2022-10-30T11:40:22;19.40;87.30
52787;DHT22;38661;53.152;5.846;2022-10-30T11:45:27;19.50;85.70
52787;DHT22;38661;53.152;5.846;2022-10-30T11:47:56;19.40;85.80
52787;DHT22;38661;53.152;5.846;2022-10-30T11:50:24;19.40;85.60
52787;DHT22;38661;53.152;5.846;2022-10-30T11:52:54;19.40;85.80
52787;DHT22;38661;53.152;5.846;2022-10-30T11:55:39;19.50;86.00
52787;DHT22;38661;53.152;5.846;2022-10-30T11:58:06;19.70;86.10
52787;DHT22;38661;53.152;5.846;2022-10-30T12:00:37;19.80;85.90
52787;DHT22;38661;53.152;5.846;2022-10-30T12:03:27;19.80;85.90
52787;DHT22;38661;53.152;5.846;2022-10-30T12:09:19;19.90;85.20
52787;DHT22;38661;53.152;5.846;2022-10-30T12:11:45;20.10;85.10
52787;DHT22;38661;53.152;5.846;2022-10-30T12:14:20;20.40;85.20
52787;DHT22;38661;53.152;5.846;2022-10-30T12:16:49;20.50;84.90
52787;DHT22;38661;53.152;5.846;2022-10-30T12:19:16;20.60;84.40
52787;DHT22;38661;53.152;5.846;2022-10-30T12:21:47;20.70;84.10
52787;DHT22;38661;53.152;5.846;2022-10-30T12:26:53;20.70;84.00
52787;DHT22;38661;53.152;5.846;2022-10-30T12:29:22;20.70;83.60
52787;DHT22;38661;53.152;5.846;2022-10-30T12:32:05;20.80;83.20
52787;DHT22;38661;53.152;5.846;2022-10-30T12:34:49;20.80;82.80
52787;DHT22;38661;53.152;5.846;2022-10-30T12:37:22;20.90;82.60
52787;DHT22;38661;53.152;5.846;2022-10-30T12:42:25;20.80;81.40
52787;DHT22;38661;53.152;5.846;2022-10-30T12:47:35;20.90;82.20
52787;DHT22;38661;53.152;5.846;2022-10-30T12:52:58;21.00;81.90
52787;DHT22;38661;53.152;5.846;2022-10-30T12:55:35;20.90;79.90
52787;DHT22;38661;53.152;5.846;2022-10-30T13:01:18;20.90;80.50
52787;DHT22;38661;53.152;5.846;2022-10-30T13:06:29;20.80;80.80
52787;DHT22;38661;53.152;5.846;2022-10-30T13:14:54;20.50;80.70
52787;DHT22;38661;53.152;5.846;2022-10-30T13:17:22;20.30;82.00
52787;DHT22;38661;53.152;5.846;2022-10-30T13:19:48;20.20;82.60
52787;DHT22;38661;53.152;5.846;2022-10-30T13:27:35;19.90;83.20
52787;DHT22;38661;53.152;5.846;2022-10-30T13:30:22;19.90;83.10
52787;DHT22;38661;53.152;5.846;2022-10-30T13:32:54;19.70;82.70
52787;DHT22;38661;53.152;5.846;2022-10-30T13:37:57;19.50;83.40
52787;DHT22;38661;53.152;5.846;2022-10-30T13:40:51;19.50;83.20
52787;DHT22;38661;53.152;5.846;2022-10-30T13:43:26;19.40;83.60
52787;DHT22;38661;53.152;5.846;2022-10-30T13:48:57;19.40;83.40
52787;DHT22;38661;53.152;5.846;2022-10-30T13:51:48;19.50;83.80
52787;DHT22;38661;53.152;5.846;2022-10-30T13:54:56;19.50;83.30
52787;DHT22;38661;53.152;5.846;2022-10-30T13:57:40;19.50;83.00
52787;DHT22;38661;53.152;5.846;2022-10-30T14:11:17;19.40;83.40
52787;DHT22;38661;53.152;5.846;2022-10-30T14:16:44;19.20;83.20
52787;DHT22;38661;53.152;5.846;2022-10-30T14:19:10;19.20;83.20
52787;DHT22;38661;53.152;5.846;2022-10-30T14:21:57;19.00;83.70
52787;DHT22;38661;53.152;5.846;2022-10-30T14:24:31;19.00;84.00
52787;DHT22;38661;53.152;5.846;2022-10-30T14:35:26;18.70;84.30
52787;DHT22;38661;53.152;5.846;2022-10-30T14:43:28;18.60;84.70
52787;DHT22;38661;53.152;5.846;2022-10-30T14:46:08;18.60;84.90
52787;DHT22;38661;53.152;5.846;2022-10-30T14:51:39;18.50;85.10
52787;DHT22;38661;53.152;5.846;2022-10-30T14:54:18;18.50;85.30
52787;DHT22;38661;53.152;5.846;2022-10-30T14:56:49;18.50;85.20
52787;DHT22;38661;53.152;5.846;2022-10-30T15:07:33;18.40;85.60
52787;DHT22;38661;53.152;5.846;2022-10-30T15:10:18;18.40;85.90
52787;DHT22;38661;53.152;5.846;2022-10-30T15:15:20;18.30;86.20
52787;DHT22;38661;53.152;5.846;2022-10-30T15:17:48;18.30;86.20
52787;DHT22;38661;53.152;5.846;2022-10-30T15:22:49;18.30;86.40
52787;DHT22;38661;53.152;5.846;2022-10-30T15:25:21;18.20;86.70
52787;DHT22;38661;53.152;5.846;2022-10-30T15:27:51;18.20;86.80
52787;DHT22;38661;53.152;5.846;2022-10-30T15:30:21;18.20;86.90
52787;DHT22;38661;53.152;5.846;2022-10-30T15:32:48;18.10;86.90
52787;DHT22;38661;53.152;5.846;2022-10-30T15:35:22;18.10;87.00
52787;DHT22;38661;53.152;5.846;2022-10-30T15:38:14;18.00;87.20
52787;DHT22;38661;53.152;5.846;2022-10-30T15:40:40;18.00;87.50
52787;DHT22;38661;53.152;5.846;2022-10-30T15:43:09;18.00;87.60
52787;DHT22;38661;53.152;5.846;2022-10-30T15:45:43;18.00;87.70
52787;DHT22;38661;53.152;5.846;2022-10-30T15:48:32;18.00;87.70
52787;DHT22;38661;53.152;5.846;2022-10-30T15:51:02;17.90;87.70
52787;DHT22;38661;53.152;5.846;2022-10-30T15:53:46;17.90;87.70
52787;DHT22;38661;53.152;5.846;2022-10-30T15:56:25;17.80;87.70
52787;DHT22;38661;53.152;5.846;2022-10-30T15:58:53;17.80;87.80
52787;DHT22;38661;53.152;5.846;2022-10-30T16:01:33;17.70;87.80
52787;DHT22;38661;53.152;5.846;2022-10-30T16:04:01;17.70;87.80
52787;DHT22;38661;53.152;5.846;2022-10-30T16:06:31;17.60;87.90
52787;DHT22;38661;53.152;5.846;2022-10-30T16:08:57;17.60;88.00
52787;DHT22;38661;53.152;5.846;2022-10-30T16:11:24;17.50;88.10
52787;DHT22;38661;53.152;5.846;2022-10-30T16:13:51;17.50;88.20
52787;DHT22;38661;53.152;5.846;2022-10-30T16:16:25;17.40;88.20
52787;DHT22;38661;53.152;5.846;2022-10-30T16:18:56;17.40;88.40
52787;DHT22;38661;53.152;5.846;2022-10-30T16:21:22;17.30;88.50
52787;DHT22;38661;53.152;5.846;2022-10-30T16:23:54;17.20;88.60
52787;DHT22;38661;53.152;5.846;2022-10-30T16:26:35;17.20;88.70
52787;DHT22;38661;53.152;5.846;2022-10-30T16:31:34;17.10;88.70
52787;DHT22;38661;53.152;5.846;2022-10-30T16:34:02;17.00;88.80
52787;DHT22;38661;53.152;5.846;2022-10-30T16:36:29;16.90;88.80
52787;DHT22;38661;53.152;5.846;2022-10-30T16:38:55;16.90;89.00
52787;DHT22;38661;53.152;5.846;2022-10-30T16:41:21;16.90;89.10
52787;DHT22;38661;53.152;5.846;2022-10-30T16:44:13;16.90;89.00
52787;DHT22;38661;53.152;5.846;2022-10-30T16:46:48;16.80;89.00
52787;DHT22;38661;53.152;5.846;2022-10-30T16:49:18;16.70;89.40
52787;DHT22;38661;53.152;5.846;2022-10-30T16:51:44;16.70;89.20
52787;DHT22;38661;53.152;5.846;2022-10-30T16:54:37;16.80;89.30
52787;DHT22;38661;53.152;5.846;2022-10-30T16:57:18;16.80;89.20
52787;DHT22;38661;53.152;5.846;2022-10-30T16:59:47;16.80;89.40
52787;DHT22;38661;53.152;5.846;2022-10-30T17:02:17;16.70;89.50
52787;DHT22;38661;53.152;5.846;2022-10-30T17:04:47;16.70;89.40
52787;DHT22;38661;53.152;5.846;2022-10-30T17:07:37;16.70;89.50
52787;DHT22;38661;53.152;5.846;2022-10-30T17:15:51;16.60;89.90
52787;DHT22;38661;53.152;5.846;2022-10-30T17:18:17;16.60;90.10
52787;DHT22;38661;53.152;5.846;2022-10-30T17:20:45;16.60;89.90
52787;DHT22;38661;53.152;5.846;2022-10-30T17:23:21;16.50;90.20
52787;DHT22;38661;53.152;5.846;2022-10-30T17:25:47;16.50;90.30
52787;DHT22;38661;53.152;5.846;2022-10-30T17:28:28;16.50;90.50
52787;DHT22;38661;53.152;5.846;2022-10-30T17:30:54;16.50;90.50
52787;DHT22;38661;53.152;5.846;2022-10-30T17:33:31;16.40;90.60
52787;DHT22;38661;53.152;5.846;2022-10-30T17:36:00;16.40;91.00
52787;DHT22;38661;53.152;5.846;2022-10-30T17:38:26;16.40;91.00
52787;DHT22;38661;53.152;5.846;2022-10-30T17:40:53;16.30;91.20
52787;DHT22;38661;53.152;5.846;2022-10-30T17:43:18;16.20;91.30
52787;DHT22;38661;53.152;5.846;2022-10-30T17:45:45;16.20;91.40
52787;DHT22;38661;53.152;5.846;2022-10-30T17:48:15;16.20;91.50
52787;DHT22;38661;53.152;5.846;2022-10-30T17:50:42;16.20;91.50
52787;DHT22;38661;53.152;5.846;2022-10-30T17:53:16;16.10;91.50
52787;DHT22;38661;53.152;5.846;2022-10-30T17:55:45;16.00;91.60
52787;DHT22;38661;53.152;5.846;2022-10-30T17:58:12;16.00;91.90
52787;DHT22;38661;53.152;5.846;2022-10-30T18:00:40;16.00;91.70
52787;DHT22;38661;53.152;5.846;2022-10-30T18:03:06;16.00;91.70
52787;DHT22;38661;53.152;5.846;2022-10-30T18:05:33;15.90;91.80
52787;DHT22;38661;53.152;5.846;2022-10-30T18:08:00;15.80;91.90
52787;DHT22;38661;53.152;5.846;2022-10-30T18:10:30;15.80;92.00
52787;DHT22;38661;53.152;5.846;2022-10-30T18:12:56;15.90;92.00
52787;DHT22;38661;53.152;5.846;2022-10-30T18:15:34;15.80;92.10
52787;DHT22;38661;53.152;5.846;2022-10-30T18:18:02;15.80;92.10
52787;DHT22;38661;53.152;5.846;2022-10-30T18:20:28;15.80;92.20
52787;DHT22;38661;53.152;5.846;2022-10-30T18:22:54;15.70;92.30
52787;DHT22;38661;53.152;5.846;2022-10-30T18:25:30;15.80;92.10
52787;DHT22;38661;53.152;5.846;2022-10-30T18:27:57;15.70;92.20
52787;DHT22;38661;53.152;5.846;2022-10-30T18:30:22;15.70;92.20
52787;DHT22;38661;53.152;5.846;2022-10-30T18:32:48;15.70;92.20
52787;DHT22;38661;53.152;5.846;2022-10-30T18:35:25;15.60;92.30